createdAt,value
2018-08-30T00:01:14.980Z,15.04
2018-08-30T00:03:45.697Z,14.99
2018-08-30T00:06:14.093Z,15.01
2018-08-30T00:08:42.904Z,14.96
2018-08-30T00:11:11.342Z,14.99
2018-08-30T00:13:39.729Z,14.92
2018-08-30T00:16:08.246Z,14.78
2018-08-30T00:18:36.720Z,14.69
2018-08-30T00:21:05.136Z,14.61
2018-08-30T00:23:33.550Z,14.56
2018-08-30T00:26:02.025Z,14.53
2018-08-30T00:28:30.584Z,14.42
2018-08-30T00:30:59.143Z,14.50
2018-08-30T00:33:28.107Z,14.48
2018-08-30T00:35:56.553Z,14.45
2018-08-30T00:38:24.954Z,14.44
2018-08-30T00:40:53.353Z,14.45
2018-08-30T00:43:21.766Z,14.51
2018-08-30T00:45:50.181Z,14.48
2018-08-30T00:48:18.597Z,14.44
2018-08-30T00:50:47.016Z,14.48
2018-08-30T00:53:15.382Z,14.52
2018-08-30T00:55:43.816Z,14.47
2018-08-30T00:58:12.273Z,14.49
2018-08-30T01:00:40.718Z,14.49
2018-08-30T01:03:09.180Z,14.50
2018-08-30T01:05:37.581Z,14.47
2018-08-30T01:08:06.068Z,14.45
2018-08-30T01:10:34.501Z,14.48
2018-08-30T01:13:02.951Z,14.52
2018-08-30T01:15:31.385Z,14.54
2018-08-30T01:17:59.773Z,14.58
2018-08-30T01:20:28.242Z,14.66
2018-08-30T01:22:56.667Z,14.62
2018-08-30T01:25:25.089Z,14.58
2018-08-30T01:27:53.546Z,14.60
2018-08-30T01:30:22.037Z,14.68
2018-08-30T01:32:50.520Z,14.68
2018-08-30T01:35:18.932Z,14.61
2018-08-30T01:37:47.341Z,14.64
2018-08-30T01:40:15.782Z,14.68
2018-08-30T01:42:44.201Z,14.70
2018-08-30T01:45:12.632Z,14.67
2018-08-30T01:47:41.132Z,14.65
2018-08-30T01:50:09.613Z,14.71
2018-08-30T01:52:38.014Z,14.73
2018-08-30T01:55:06.517Z,14.75
2018-08-30T01:57:34.926Z,14.83
2018-08-30T02:00:03.389Z,14.72
2018-08-30T02:02:31.786Z,14.72
2018-08-30T02:05:00.250Z,14.69
2018-08-30T02:07:28.675Z,14.71
2018-08-30T02:09:57.091Z,14.68
2018-08-30T02:12:25.660Z,14.71
2018-08-30T02:14:54.072Z,14.72
2018-08-30T02:17:22.513Z,14.76
2018-08-30T02:19:50.941Z,14.72
2018-08-30T02:22:19.381Z,14.71
2018-08-30T02:24:47.868Z,14.75
2018-08-30T02:27:16.279Z,14.77
2018-08-30T02:29:44.761Z,14.71
2018-08-30T02:32:13.197Z,14.67
2018-08-30T02:34:41.604Z,14.70
2018-08-30T02:37:10.055Z,14.65
2018-08-30T02:39:39.055Z,14.67
2018-08-30T02:42:07.473Z,14.68
2018-08-30T02:44:35.883Z,14.67
2018-08-30T02:47:04.596Z,14.72
2018-08-30T02:49:33.013Z,14.71
2018-08-30T02:52:01.434Z,14.71
2018-08-30T02:54:29.924Z,14.79
2018-08-30T02:56:58.273Z,14.77
2018-08-30T02:59:26.742Z,14.73
2018-08-30T03:01:55.224Z,14.72
2018-08-30T03:04:23.640Z,14.75
2018-08-30T03:06:52.054Z,14.70
2018-08-30T03:09:21.709Z,14.63
2018-08-30T03:11:50.126Z,14.61
2018-08-30T03:14:18.532Z,14.60
2018-08-30T03:16:47.013Z,14.59
2018-08-30T03:19:15.446Z,14.63
2018-08-30T03:21:43.875Z,14.66
2018-08-30T03:24:12.337Z,14.65
2018-08-30T03:26:40.745Z,14.62
2018-08-30T03:29:09.173Z,14.63
2018-08-30T03:31:37.603Z,14.65
2018-08-30T03:34:06.064Z,14.67
2018-08-30T03:36:34.492Z,14.69
2018-08-30T03:39:02.991Z,14.71
2018-08-30T03:41:31.364Z,14.73
2018-08-30T03:43:59.742Z,14.71
2018-08-30T03:46:28.205Z,14.70
2018-08-30T03:48:56.620Z,14.68
2018-08-30T03:51:25.013Z,14.66
2018-08-30T03:53:53.447Z,14.65
2018-08-30T03:56:22.047Z,14.66
2018-08-30T03:58:50.508Z,14.63
2018-08-30T04:01:18.939Z,14.61
2018-08-30T04:03:47.381Z,14.67
2018-08-30T04:06:15.812Z,14.68
2018-08-30T04:08:45.192Z,14.38
2018-08-30T04:11:14.242Z,14.69
2018-08-30T04:13:43.286Z,14.67
2018-08-30T04:16:11.621Z,14.64
2018-08-30T04:18:40.039Z,14.64
2018-08-30T04:21:08.512Z,14.68
2018-08-30T04:23:36.938Z,14.66
2018-08-30T04:26:05.502Z,14.69
2018-08-30T04:28:33.881Z,14.63
2018-08-30T04:31:02.336Z,14.65
2018-08-30T04:33:30.733Z,14.62
2018-08-30T04:35:59.171Z,14.62
2018-08-30T04:38:27.630Z,14.58
2018-08-30T04:40:56.093Z,14.61
2018-08-30T04:43:24.490Z,14.69
2018-08-30T04:45:52.940Z,14.66
2018-08-30T04:48:21.343Z,14.68
2018-08-30T04:50:49.743Z,14.63
2018-08-30T04:53:18.133Z,14.63
2018-08-30T04:55:46.559Z,14.54
2018-08-30T04:58:14.941Z,14.54
2018-08-30T05:00:43.370Z,14.51
2018-08-30T05:03:11.788Z,14.52
2018-08-30T05:05:40.224Z,14.56
2018-08-30T05:08:08.655Z,14.56
2018-08-30T05:10:37.243Z,14.55
2018-08-30T05:13:05.661Z,14.55
2018-08-30T05:15:34.098Z,14.55
2018-08-30T05:18:02.516Z,14.52
2018-08-30T05:20:30.944Z,14.53
2018-08-30T05:22:59.397Z,14.58
2018-08-30T05:25:27.797Z,14.58
2018-08-30T05:27:56.260Z,14.57
2018-08-30T05:30:24.682Z,14.55
2018-08-30T05:32:53.244Z,14.53
2018-08-30T05:35:21.722Z,14.56
2018-08-30T05:37:50.244Z,14.61
2018-08-30T05:40:19.015Z,14.57
2018-08-30T05:42:47.464Z,14.58
2018-08-30T05:45:15.931Z,14.57
2018-08-30T05:47:44.344Z,14.58
2018-08-30T05:50:12.785Z,14.57
2018-08-30T05:52:41.210Z,14.58
2018-08-30T05:55:09.662Z,14.58
2018-08-30T05:57:38.111Z,14.58
2018-08-30T06:00:06.689Z,14.59
2018-08-30T06:02:35.063Z,14.58
2018-08-30T06:05:03.525Z,14.61
2018-08-30T06:07:31.942Z,14.58
2018-08-30T06:10:00.352Z,14.59
2018-08-30T06:12:28.760Z,14.58
2018-08-30T06:14:57.637Z,14.57
2018-08-30T06:17:26.233Z,14.57
2018-08-30T06:19:54.628Z,14.59
2018-08-30T06:22:23.055Z,14.63
2018-08-30T06:24:51.602Z,14.62
2018-08-30T06:27:20.020Z,14.63
2018-08-30T06:29:48.513Z,14.67
2018-08-30T06:32:16.998Z,14.71
2018-08-30T06:34:45.536Z,14.72
2018-08-30T06:37:14.019Z,14.70
2018-08-30T06:39:42.411Z,14.70
2018-08-30T06:42:10.864Z,14.70
2018-08-30T06:44:40.237Z,14.70
2018-08-30T06:47:08.766Z,14.69
2018-08-30T06:49:37.201Z,14.70
2018-08-30T06:52:05.852Z,14.73
2018-08-30T06:54:34.274Z,14.73
2018-08-30T06:57:02.756Z,14.78
2018-08-30T06:59:31.161Z,14.73
2018-08-30T07:01:59.590Z,14.81
2018-08-30T07:04:28.025Z,14.86
2018-08-30T07:06:56.406Z,14.87
2018-08-30T07:09:24.806Z,14.88
2018-08-30T07:11:53.305Z,14.86
2018-08-30T07:14:21.753Z,14.87
2018-08-30T07:16:50.195Z,14.84
2018-08-30T07:19:18.637Z,14.80
2018-08-30T07:21:47.061Z,14.84
2018-08-30T07:24:15.616Z,14.85
2018-08-30T07:26:43.926Z,14.86
2018-08-30T07:29:12.367Z,14.87
2018-08-30T07:31:40.825Z,14.90
2018-08-30T07:34:09.252Z,14.92
2018-08-30T07:36:37.649Z,14.95
2018-08-30T07:39:09.083Z,14.94
2018-08-30T07:41:37.536Z,15.00
2018-08-30T07:44:06.516Z,15.00
2018-08-30T07:46:34.924Z,14.96
2018-08-30T07:49:03.522Z,14.70
2018-08-30T07:51:31.934Z,14.96
2018-08-30T07:54:00.396Z,14.99
2018-08-30T07:56:28.860Z,15.01
2018-08-30T07:58:57.297Z,15.09
2018-08-30T08:01:25.693Z,15.13
2018-08-30T08:03:54.094Z,15.20
2018-08-30T08:06:22.552Z,15.30
2018-08-30T08:08:51.023Z,15.35
2018-08-30T08:11:19.452Z,15.40
2018-08-30T08:13:47.873Z,15.39
2018-08-30T08:16:16.375Z,15.29
2018-08-30T08:18:44.823Z,15.20
2018-08-30T08:21:13.276Z,15.28
2018-08-30T08:23:41.657Z,15.29
2018-08-30T08:26:10.168Z,15.33
2018-08-30T08:28:38.584Z,15.42
2018-08-30T08:31:07.128Z,15.56
2018-08-30T08:33:35.528Z,15.61
2018-08-30T08:36:03.956Z,15.68
2018-08-30T08:38:32.395Z,15.66
2018-08-30T08:41:00.856Z,15.63
2018-08-30T08:43:29.260Z,15.58
2018-08-30T08:45:57.805Z,15.57
2018-08-30T08:48:26.330Z,15.55
2018-08-30T08:50:54.744Z,15.60
2018-08-30T08:53:23.166Z,15.65
2018-08-30T08:55:52.040Z,15.75
2018-08-30T08:58:20.449Z,15.88
2018-08-30T09:00:48.996Z,15.89
2018-08-30T09:03:25.212Z,16.05
2018-08-30T09:05:53.640Z,16.08
2018-08-30T09:08:22.081Z,16.11
2018-08-30T09:10:50.565Z,16.03
2018-08-30T09:13:19.805Z,15.98
2018-08-30T09:15:48.265Z,15.94
2018-08-30T09:18:16.695Z,16.00
2018-08-30T09:20:45.092Z,16.04
2018-08-30T09:23:13.607Z,16.12
2018-08-30T09:25:42.020Z,16.21
2018-08-30T09:28:10.471Z,16.21
2018-08-30T09:30:38.884Z,16.19
2018-08-30T09:33:07.526Z,16.18
2018-08-30T09:35:35.999Z,16.16
2018-08-30T09:38:04.437Z,16.12
2018-08-30T09:40:32.879Z,16.04
2018-08-30T09:43:01.344Z,15.98
2018-08-30T09:45:29.829Z,16.02
2018-08-30T09:47:58.236Z,16.07
2018-08-30T09:50:26.707Z,16.25
2018-08-30T09:52:55.167Z,16.29
2018-08-30T09:55:23.575Z,16.19
2018-08-30T09:57:51.977Z,16.25
2018-08-30T10:00:25.693Z,16.29
2018-08-30T10:02:54.067Z,16.28
2018-08-30T10:05:22.537Z,16.31
2018-08-30T10:07:50.933Z,16.36
2018-08-30T10:10:19.321Z,16.44
2018-08-30T10:12:47.750Z,16.55
2018-08-30T10:15:16.222Z,16.63
2018-08-30T10:17:44.680Z,16.66
2018-08-30T10:20:13.188Z,16.55
2018-08-30T10:22:41.593Z,16.43
2018-08-30T10:25:10.057Z,16.36
2018-08-30T10:27:38.485Z,16.31
2018-08-30T10:30:07.017Z,16.31
2018-08-30T10:32:35.469Z,16.30
2018-08-30T10:35:03.937Z,16.30
2018-08-30T10:37:32.343Z,16.34
2018-08-30T10:40:00.764Z,16.40
2018-08-30T10:42:29.197Z,16.41
2018-08-30T10:44:57.644Z,16.45
2018-08-30T10:47:26.065Z,16.50
2018-08-30T10:49:54.742Z,16.54
2018-08-30T10:52:23.118Z,16.63
2018-08-30T10:54:51.524Z,16.78
2018-08-30T10:57:19.979Z,16.92
2018-08-30T10:59:48.424Z,17.04
2018-08-30T11:02:16.940Z,17.07
2018-08-30T11:04:45.463Z,17.01
2018-08-30T11:07:13.950Z,16.84
2018-08-30T11:09:42.316Z,16.77
2018-08-30T11:12:10.848Z,16.73
2018-08-30T11:14:39.225Z,16.66
2018-08-30T11:17:07.696Z,16.60
2018-08-30T11:19:36.184Z,16.53
2018-08-30T11:22:04.624Z,16.50
2018-08-30T11:24:33.071Z,16.47
2018-08-30T11:27:02.026Z,16.46
2018-08-30T11:29:30.424Z,16.59
2018-08-30T11:31:58.906Z,16.68
2018-08-30T11:34:27.404Z,16.86
2018-08-30T11:36:55.996Z,16.98
2018-08-30T11:39:24.468Z,16.87
2018-08-30T11:41:52.952Z,16.86
2018-08-30T11:44:21.333Z,16.88
2018-08-30T11:46:49.811Z,16.93
2018-08-30T11:49:18.181Z,17.13
2018-08-30T11:51:46.617Z,17.30
2018-08-30T11:54:15.078Z,17.16
2018-08-30T11:56:43.442Z,17.01
2018-08-30T11:59:11.857Z,16.89
2018-08-30T12:01:40.740Z,16.81
2018-08-30T12:04:10.368Z,16.79
2018-08-30T12:06:38.880Z,16.89
2018-08-30T12:09:08.817Z,17.02
2018-08-30T12:11:38.157Z,17.07
2018-08-30T12:14:06.568Z,17.25
2018-08-30T12:16:34.976Z,17.52
2018-08-30T12:19:03.848Z,17.48
2018-08-30T12:21:32.285Z,17.52
2018-08-30T12:24:00.802Z,17.63
2018-08-30T12:26:29.339Z,17.74
2018-08-30T12:28:57.809Z,17.56
2018-08-30T12:31:26.336Z,17.61
2018-08-30T12:33:54.795Z,17.78
2018-08-30T12:36:23.505Z,17.98
2018-08-30T12:38:51.910Z,17.90
2018-08-30T12:41:20.423Z,17.66
2018-08-30T12:43:48.830Z,18.14
2018-08-30T12:46:17.235Z,18.44
2018-08-30T12:48:45.664Z,18.52
2018-08-30T12:51:14.292Z,19.15
2018-08-30T12:53:42.636Z,19.37
2018-08-30T12:56:11.052Z,19.48
2018-08-30T12:58:39.418Z,19.93
2018-08-30T13:01:07.946Z,20.05
2018-08-30T13:03:36.468Z,19.43
2018-08-30T13:06:05.255Z,18.75
2018-08-30T13:08:33.624Z,19.09
2018-08-30T13:11:02.018Z,19.39
2018-08-30T13:13:30.313Z,19.77
2018-08-30T13:15:58.860Z,19.91
2018-08-30T13:18:27.373Z,19.98
2018-08-30T13:20:55.724Z,20.33
2018-08-30T13:23:24.176Z,19.38
2018-08-30T13:25:52.742Z,19.94
2018-08-30T13:28:20.985Z,20.02
2018-08-30T13:30:49.447Z,19.88
2018-08-30T13:33:19.907Z,19.47
2018-08-30T13:35:46.583Z,19.52
2018-08-30T13:38:15.126Z,18.98
2018-08-30T13:40:43.541Z,18.76
2018-08-30T13:43:12.135Z,18.42
2018-08-30T13:45:40.318Z,18.68
2018-08-30T13:48:08.691Z,18.77
2018-08-30T13:50:37.294Z,18.86
2018-08-30T13:53:05.682Z,18.83
2018-08-30T13:55:34.916Z,18.91
2018-08-30T13:58:03.563Z,18.80
2018-08-30T14:00:31.993Z,18.56
2018-08-30T14:03:00.251Z,18.36
2018-08-30T14:05:28.632Z,18.28
2018-08-30T14:07:57.128Z,18.40
2018-08-30T14:10:25.680Z,18.52
2018-08-30T14:12:53.964Z,18.54
2018-08-30T14:15:22.782Z,18.54
2018-08-30T14:17:50.862Z,18.59
2018-08-30T14:20:19.290Z,18.55
2018-08-30T14:22:47.789Z,18.60
2018-08-30T14:25:16.263Z,18.57
2018-08-30T14:27:44.661Z,18.57
2018-08-30T14:30:13.123Z,18.37
2018-08-30T14:32:41.621Z,18.26
2018-08-30T14:35:10.043Z,18.18
2018-08-30T14:37:38.485Z,18.28
2018-08-30T14:40:07.011Z,18.31
2018-08-30T14:42:35.645Z,18.30
2018-08-30T14:45:04.894Z,18.27
2018-08-30T14:47:33.621Z,18.31
2018-08-30T14:50:01.958Z,18.41
2018-08-30T14:52:31.342Z,18.48
2018-08-30T14:54:59.836Z,18.54
2018-08-30T14:57:28.441Z,18.62
2018-08-30T14:59:56.899Z,18.65
2018-08-30T15:02:25.401Z,18.69
2018-08-30T15:04:53.844Z,18.67
2018-08-30T15:07:22.279Z,18.70
2018-08-30T15:09:50.698Z,18.68
2018-08-30T15:12:19.149Z,18.71
2018-08-30T15:14:49.009Z,18.64
2018-08-30T15:17:17.391Z,18.63
2018-08-30T15:19:45.839Z,18.68
2018-08-30T15:22:14.333Z,18.62
2018-08-30T15:24:42.690Z,18.62
2018-08-30T15:27:11.923Z,18.60
2018-08-30T15:29:40.262Z,18.59
2018-08-30T15:32:08.730Z,18.61
2018-08-30T15:34:37.146Z,18.68
2018-08-30T15:37:06.194Z,18.67
2018-08-30T15:39:34.592Z,18.71
2018-08-30T15:42:03.281Z,18.71
2018-08-30T15:44:31.643Z,18.70
2018-08-30T15:47:00.151Z,18.74
2018-08-30T15:49:28.830Z,18.75
2018-08-30T15:51:57.384Z,18.70
2018-08-30T15:54:25.814Z,18.73
2018-08-30T15:56:54.323Z,18.80
2018-08-30T15:59:22.890Z,18.76
2018-08-30T16:01:51.272Z,18.67
2018-08-30T16:04:19.735Z,18.62
2018-08-30T16:06:48.188Z,18.57
2018-08-30T16:09:16.746Z,18.50
2018-08-30T16:11:45.070Z,18.48
2018-08-30T16:14:13.499Z,18.63
2018-08-30T16:16:41.934Z,18.69
2018-08-30T16:19:10.385Z,18.76
2018-08-30T16:21:38.838Z,18.79
2018-08-30T16:24:07.368Z,18.71
2018-08-30T16:26:35.808Z,18.68
2018-08-30T16:29:04.320Z,18.61
2018-08-30T16:31:32.691Z,18.63
2018-08-30T16:34:01.127Z,18.60
2018-08-30T16:36:29.568Z,18.56
2018-08-30T16:38:58.472Z,18.48
2018-08-30T16:41:26.958Z,18.42
2018-08-30T16:43:55.340Z,18.39
2018-08-30T16:46:23.828Z,18.36
2018-08-30T16:48:52.386Z,18.30
2018-08-30T16:51:20.769Z,18.21
2018-08-30T16:53:49.277Z,18.16
2018-08-30T16:56:18.196Z,18.15
2018-08-30T16:58:46.531Z,18.12
2018-08-30T17:01:14.965Z,18.13
2018-08-30T17:03:43.396Z,18.14
2018-08-30T17:06:11.794Z,18.07
2018-08-30T17:08:40.310Z,18.01
2018-08-30T17:11:08.705Z,17.98
2018-08-30T17:13:37.097Z,17.96
2018-08-30T17:16:05.592Z,17.95
2018-08-30T17:18:34.025Z,17.96
2018-08-30T17:21:02.481Z,17.96
2018-08-30T17:23:30.887Z,17.95
2018-08-30T17:25:59.379Z,17.92
2018-08-30T17:28:27.899Z,17.89
2018-08-30T17:30:56.347Z,17.86
2018-08-30T17:33:24.823Z,17.83
2018-08-30T17:35:53.215Z,17.77
2018-08-30T17:38:21.695Z,17.71
2018-08-30T17:40:50.092Z,17.66
2018-08-30T17:43:18.540Z,17.63
2018-08-30T17:45:46.983Z,17.62
2018-08-30T17:48:16.037Z,17.57
2018-08-30T17:50:44.458Z,17.51
2018-08-30T17:53:13.205Z,17.48
2018-08-30T17:55:41.773Z,17.45
2018-08-30T17:58:10.320Z,17.40
2018-08-30T18:00:38.800Z,17.37
2018-08-30T18:03:07.298Z,17.33
2018-08-30T18:05:35.746Z,17.33
2018-08-30T18:08:04.216Z,17.30
2018-08-30T18:10:32.658Z,17.24
2018-08-30T18:13:01.076Z,17.19
2018-08-30T18:15:29.580Z,17.20
2018-08-30T18:17:58.024Z,17.10
2018-08-30T18:20:26.413Z,17.06
2018-08-30T18:22:54.834Z,17.03
2018-08-30T18:25:23.457Z,17.03
2018-08-30T18:27:51.880Z,16.96
2018-08-30T18:30:20.362Z,16.92
2018-08-30T18:32:48.871Z,16.91
2018-08-30T18:35:17.285Z,16.86
2018-08-30T18:37:45.735Z,16.80
2018-08-30T18:40:14.280Z,16.72
2018-08-30T18:42:42.740Z,16.73
2018-08-30T18:45:11.558Z,16.71
2018-08-30T18:47:40.155Z,16.68
2018-08-30T18:50:08.722Z,16.64
2018-08-30T18:52:37.592Z,16.61
2018-08-30T18:55:06.042Z,16.58
2018-08-30T18:57:34.487Z,16.54
2018-08-30T19:00:03.040Z,16.53
2018-08-30T19:02:31.788Z,16.50
2018-08-30T19:05:00.279Z,16.47
2018-08-30T19:07:28.756Z,16.46
2018-08-30T19:09:57.330Z,16.43
2018-08-30T19:12:26.005Z,16.40
2018-08-30T19:14:54.422Z,16.35
2018-08-30T19:17:28.386Z,16.26
2018-08-30T19:19:58.344Z,16.20
2018-08-30T19:22:27.307Z,16.14
2018-08-30T19:25:01.083Z,16.08
2018-08-30T19:27:29.483Z,16.04
2018-08-30T19:30:03.060Z,16.02
2018-08-30T19:32:31.706Z,16.02
2018-08-30T19:35:05.359Z,15.98
2018-08-30T19:37:34.065Z,15.85
2018-08-30T19:40:02.678Z,15.78
2018-08-30T19:42:31.308Z,15.79
2018-08-30T19:44:59.729Z,15.79
2018-08-30T19:47:28.214Z,15.75
2018-08-30T19:49:56.694Z,15.69
2018-08-30T19:52:25.365Z,15.58
2018-08-30T19:54:53.817Z,15.54
2018-08-30T19:57:22.057Z,15.44
2018-08-30T19:59:50.523Z,15.37
2018-08-30T20:02:18.993Z,15.31
2018-08-30T20:04:48.108Z,15.27
2018-08-30T20:07:16.506Z,15.32
2018-08-30T20:09:44.972Z,15.33
2018-08-30T20:12:13.416Z,15.30
2018-08-30T20:14:42.105Z,15.20
2018-08-30T20:17:10.594Z,15.23
2018-08-30T20:19:39.089Z,15.16
2018-08-30T20:22:10.441Z,15.12
2018-08-30T20:24:38.891Z,15.08
2018-08-30T20:27:08.572Z,15.10
2018-08-30T20:29:37.074Z,15.07
2018-08-30T20:32:06.243Z,15.04
2018-08-30T20:34:35.050Z,15.03
2018-08-30T20:37:03.515Z,15.00
2018-08-30T20:39:31.924Z,14.99
2018-08-30T20:42:00.424Z,14.96
2018-08-30T20:44:28.853Z,14.97
2018-08-30T20:46:57.301Z,14.96
2018-08-30T20:49:25.736Z,14.96
2018-08-30T20:51:54.172Z,14.97
2018-08-30T20:54:22.612Z,14.92
2018-08-30T20:56:51.136Z,14.90
2018-08-30T20:59:19.640Z,14.90
2018-08-30T21:01:48.113Z,14.85
2018-08-30T21:04:16.633Z,14.82
2018-08-30T21:06:45.149Z,14.76
2018-08-30T21:09:13.630Z,14.70
2018-08-30T21:11:42.052Z,14.57
2018-08-30T21:14:10.498Z,14.57
2018-08-30T21:16:38.891Z,14.53
2018-08-30T21:19:08.294Z,14.47
2018-08-30T21:21:36.726Z,14.45
2018-08-30T21:24:05.253Z,14.43
2018-08-30T21:26:33.793Z,14.41
2018-08-30T21:29:02.276Z,14.22
2018-08-30T21:31:30.710Z,14.13
2018-08-30T21:33:59.102Z,14.14
2018-08-30T21:36:27.549Z,14.17
2018-08-30T21:38:56.074Z,14.11
2018-08-30T21:41:24.440Z,14.05
2018-08-30T21:43:52.852Z,14.05
2018-08-30T21:46:21.344Z,14.08
2018-08-30T21:48:49.939Z,14.06
2018-08-30T21:51:18.427Z,14.00
2018-08-30T21:53:46.863Z,14.00
2018-08-30T21:56:15.287Z,13.91
2018-08-30T21:58:43.656Z,13.86
2018-08-30T22:01:12.068Z,13.89
2018-08-30T22:03:40.483Z,13.92
2018-08-30T22:06:08.942Z,13.88
2018-08-30T22:08:37.327Z,13.85
2018-08-30T22:11:05.850Z,13.80
2018-08-30T22:13:34.283Z,13.82
2018-08-30T22:16:02.732Z,13.79
2018-08-30T22:18:31.222Z,13.78
2018-08-30T22:21:01.889Z,13.71
2018-08-30T22:23:30.315Z,13.74
2018-08-30T22:25:58.804Z,13.77
2018-08-30T22:28:27.226Z,13.77
2018-08-30T22:30:55.703Z,13.75
2018-08-30T22:33:24.104Z,13.77
2018-08-30T22:35:52.518Z,13.82
2018-08-30T22:38:20.961Z,13.85
2018-08-30T22:40:50.326Z,13.86
2018-08-30T22:43:18.737Z,13.81
2018-08-30T22:45:47.152Z,13.73
2018-08-30T22:48:16.269Z,13.70
2018-08-30T22:50:44.713Z,13.63
2018-08-30T22:53:13.076Z,13.58
2018-08-30T22:55:45.220Z,13.56
2018-08-30T22:58:13.681Z,13.54
2018-08-30T23:00:42.874Z,13.51
2018-08-30T23:03:11.241Z,13.49
2018-08-30T23:05:40.507Z,13.47
2018-08-30T23:08:09.122Z,13.47
2018-08-30T23:10:37.874Z,13.27
2018-08-30T23:13:07.755Z,13.45
2018-08-30T23:15:36.902Z,13.49
2018-08-30T23:18:05.467Z,13.45
2018-08-30T23:20:33.889Z,13.38
2018-08-30T23:23:02.315Z,13.29
2018-08-30T23:25:30.764Z,13.29
2018-08-30T23:28:00.151Z,13.29
2018-08-30T23:30:28.629Z,13.27
2018-08-30T23:32:57.027Z,13.25
2018-08-30T23:35:25.465Z,13.25
2018-08-30T23:37:53.941Z,13.23
2018-08-30T23:40:22.350Z,13.24
2018-08-30T23:42:50.792Z,13.16
2018-08-30T23:45:19.199Z,13.16
2018-08-30T23:47:47.644Z,13.15
2018-08-30T23:50:16.080Z,13.11
2018-08-30T23:52:44.580Z,13.17
2018-08-30T23:55:12.985Z,13.17
2018-08-30T23:57:52.896Z,13.16
